sensor_id;sensor_type;location;lat;lon;timestamp;P1;durP1;ratioP1;P2;durP2;ratioP2
828;SDS011;396;52.558;13.188;2022-12-11T00:01:10;17.67;;;7.13;;
828;SDS011;396;52.558;13.188;2022-12-11T00:03:37;22.57;;;7.87;;
828;SDS011;396;52.558;13.188;2022-12-11T00:06:04;16.70;;;7.30;;
828;SDS011;396;52.558;13.188;2022-12-11T00:08:32;19.33;;;7.67;;
828;SDS011;396;52.558;13.188;2022-12-11T00:10:58;13.70;;;6.83;;
828;SDS011;396;52.558;13.188;2022-12-11T00:13:25;18.87;;;7.73;;
828;SDS011;396;52.558;13.188;2022-12-11T00:15:52;15.60;;;6.27;;
828;SDS011;396;52.558;13.188;2022-12-11T00:18:20;23.73;;;7.07;;
828;SDS011;396;52.558;13.188;2022-12-11T00:20:47;16.50;;;7.30;;
828;SDS011;396;52.558;13.188;2022-12-11T00:23:13;15.50;;;7.30;;
828;SDS011;396;52.558;13.188;2022-12-11T00:25:40;18.90;;;7.10;;
828;SDS011;396;52.558;13.188;2022-12-11T00:28:08;19.40;;;6.60;;
828;SDS011;396;52.558;13.188;2022-12-11T00:30:37;15.47;;;7.03;;
828;SDS011;396;52.558;13.188;2022-12-11T00:33:04;16.23;;;6.03;;
828;SDS011;396;52.558;13.188;2022-12-11T00:35:32;15.33;;;6.70;;
828;SDS011;396;52.558;13.188;2022-12-11T00:37:58;16.40;;;6.60;;
828;SDS011;396;52.558;13.188;2022-12-11T00:40:25;18.30;;;6.03;;
828;SDS011;396;52.558;13.188;2022-12-11T00:42:51;14.30;;;6.30;;
828;SDS011;396;52.558;13.188;2022-12-11T00:45:18;24.47;;;7.77;;
828;SDS011;396;52.558;13.188;2022-12-11T00:47:44;17.23;;;7.40;;
828;SDS011;396;52.558;13.188;2022-12-11T00:50:11;17.00;;;6.23;;
828;SDS011;396;52.558;13.188;2022-12-11T00:52:39;23.47;;;7.03;;
828;SDS011;396;52.558;13.188;2022-12-11T00:55:06;15.10;;;6.77;;
828;SDS011;396;52.558;13.188;2022-12-11T00:57:33;19.87;;;7.10;;
828;SDS011;396;52.558;13.188;2022-12-11T00:59:59;15.20;;;6.83;;
828;SDS011;396;52.558;13.188;2022-12-11T01:02:26;17.40;;;5.93;;
828;SDS011;396;52.558;13.188;2022-12-11T01:04:52;17.87;;;7.63;;
828;SDS011;396;52.558;13.188;2022-12-11T01:07:19;20.40;;;6.50;;
828;SDS011;396;52.558;13.188;2022-12-11T01:09:47;18.27;;;6.60;;
828;SDS011;396;52.558;13.188;2022-12-11T01:12:43;13.37;;;6.20;;
828;SDS011;396;52.558;13.188;2022-12-11T01:15:09;19.67;;;7.53;;
828;SDS011;396;52.558;13.188;2022-12-11T01:17:36;14.63;;;7.17;;
828;SDS011;396;52.558;13.188;2022-12-11T01:20:03;19.70;;;8.00;;
828;SDS011;396;52.558;13.188;2022-12-11T01:22:30;15.23;;;7.70;;
828;SDS011;396;52.558;13.188;2022-12-11T01:24:58;19.27;;;7.70;;
828;SDS011;396;52.558;13.188;2022-12-11T01:27:25;25.60;;;8.77;;
828;SDS011;396;52.558;13.188;2022-12-11T01:29:52;16.10;;;7.67;;
828;SDS011;396;52.558;13.188;2022-12-11T01:32:18;16.70;;;6.80;;
828;SDS011;396;52.558;13.188;2022-12-11T01:34:45;19.40;;;7.70;;
828;SDS011;396;52.558;13.188;2022-12-11T01:37:11;18.43;;;8.17;;
828;SDS011;396;52.558;13.188;2022-12-11T01:39:38;14.37;;;6.50;;
828;SDS011;396;52.558;13.188;2022-12-11T01:42:06;17.97;;;6.30;;
828;SDS011;396;52.558;13.188;2022-12-11T01:47:52;13.50;;;5.83;;
828;SDS011;396;52.558;13.188;2022-12-11T01:50:24;19.00;;;6.57;;
828;SDS011;396;52.558;13.188;2022-12-11T01:52:52;15.43;;;6.43;;
828;SDS011;396;52.558;13.188;2022-12-11T01:55:19;21.17;;;6.73;;
828;SDS011;396;52.558;13.188;2022-12-11T01:57:48;11.67;;;6.10;;
828;SDS011;396;52.558;13.188;2022-12-11T02:00:16;18.37;;;7.63;;
828;SDS011;396;52.558;13.188;2022-12-11T02:02:43;17.90;;;6.93;;
828;SDS011;396;52.558;13.188;2022-12-11T02:05:10;20.97;;;8.27;;
828;SDS011;396;52.558;13.188;2022-12-11T02:07:38;16.77;;;6.70;;
828;SDS011;396;52.558;13.188;2022-12-11T02:10:08;12.77;;;6.53;;
828;SDS011;396;52.558;13.188;2022-12-11T02:12:38;15.20;;;6.60;;
828;SDS011;396;52.558;13.188;2022-12-11T02:15:16;17.20;;;7.53;;
828;SDS011;396;52.558;13.188;2022-12-11T02:17:50;19.93;;;6.73;;
828;SDS011;396;52.558;13.188;2022-12-11T02:20:25;21.07;;;6.23;;
828;SDS011;396;52.558;13.188;2022-12-11T02:23:04;22.03;;;7.80;;
828;SDS011;396;52.558;13.188;2022-12-11T02:25:55;14.57;;;6.40;;
828;SDS011;396;52.558;13.188;2022-12-11T02:28:30;18.27;;;6.37;;
828;SDS011;396;52.558;13.188;2022-12-11T02:31:02;16.77;;;7.10;;
828;SDS011;396;52.558;13.188;2022-12-11T02:33:33;15.73;;;6.37;;
828;SDS011;396;52.558;13.188;2022-12-11T02:36:04;12.70;;;5.77;;
828;SDS011;396;52.558;13.188;2022-12-11T02:38:33;18.47;;;6.63;;
828;SDS011;396;52.558;13.188;2022-12-11T02:41:04;15.77;;;6.83;;
828;SDS011;396;52.558;13.188;2022-12-11T02:43:35;16.03;;;7.37;;
828;SDS011;396;52.558;13.188;2022-12-11T02:46:04;18.80;;;6.80;;
828;SDS011;396;52.558;13.188;2022-12-11T02:48:33;16.63;;;7.40;;
828;SDS011;396;52.558;13.188;2022-12-11T02:51:01;22.13;;;8.10;;
828;SDS011;396;52.558;13.188;2022-12-11T02:53:30;15.57;;;7.13;;
828;SDS011;396;52.558;13.188;2022-12-11T02:56:01;21.00;;;6.83;;
828;SDS011;396;52.558;13.188;2022-12-11T02:58:34;16.53;;;6.70;;
828;SDS011;396;52.558;13.188;2022-12-11T03:01:07;13.60;;;6.10;;
828;SDS011;396;52.558;13.188;2022-12-11T03:03:35;14.63;;;7.20;;
828;SDS011;396;52.558;13.188;2022-12-11T03:06:01;13.17;;;7.30;;
828;SDS011;396;52.558;13.188;2022-12-11T03:08:28;18.53;;;7.80;;
828;SDS011;396;52.558;13.188;2022-12-11T03:10:55;22.60;;;8.70;;
828;SDS011;396;52.558;13.188;2022-12-11T03:13:22;22.03;;;7.93;;
828;SDS011;396;52.558;13.188;2022-12-11T03:15:53;18.10;;;6.80;;
828;SDS011;396;52.558;13.188;2022-12-11T03:18:30;16.33;;;6.97;;
828;SDS011;396;52.558;13.188;2022-12-11T03:21:04;17.73;;;6.90;;
828;SDS011;396;52.558;13.188;2022-12-11T03:23:33;19.53;;;8.20;;
828;SDS011;396;52.558;13.188;2022-12-11T03:26:09;16.57;;;7.17;;
828;SDS011;396;52.558;13.188;2022-12-11T03:28:39;19.13;;;7.00;;
828;SDS011;396;52.558;13.188;2022-12-11T03:31:12;15.93;;;7.63;;
828;SDS011;396;52.558;13.188;2022-12-11T03:33:42;16.57;;;7.03;;
828;SDS011;396;52.558;13.188;2022-12-11T03:36:16;15.87;;;6.57;;
828;SDS011;396;52.558;13.188;2022-12-11T03:38:47;13.87;;;7.10;;
828;SDS011;396;52.558;13.188;2022-12-11T03:41:18;23.30;;;8.07;;
828;SDS011;396;52.558;13.188;2022-12-11T03:43:47;15.10;;;7.07;;
828;SDS011;396;52.558;13.188;2022-12-11T03:46:18;17.60;;;7.10;;
828;SDS011;396;52.558;13.188;2022-12-11T03:48:47;27.50;;;7.50;;
828;SDS011;396;52.558;13.188;2022-12-11T03:51:15;16.90;;;7.20;;
828;SDS011;396;52.558;13.188;2022-12-11T03:53:43;20.10;;;8.00;;
828;SDS011;396;52.558;13.188;2022-12-11T03:56:11;25.23;;;7.00;;
828;SDS011;396;52.558;13.188;2022-12-11T03:58:40;13.67;;;6.50;;
828;SDS011;396;52.558;13.188;2022-12-11T04:01:07;17.87;;;7.10;;
828;SDS011;396;52.558;13.188;2022-12-11T04:03:36;14.77;;;7.67;;
828;SDS011;396;52.558;13.188;2022-12-11T04:06:03;14.63;;;6.70;;
828;SDS011;396;52.558;13.188;2022-12-11T04:08:30;18.50;;;9.00;;
828;SDS011;396;52.558;13.188;2022-12-11T04:10:56;15.63;;;6.50;;
828;SDS011;396;52.558;13.188;2022-12-11T04:13:37;17.40;;;7.03;;
828;SDS011;396;52.558;13.188;2022-12-11T04:16:05;18.90;;;7.40;;
828;SDS011;396;52.558;13.188;2022-12-11T04:18:31;19.23;;;7.87;;
828;SDS011;396;52.558;13.188;2022-12-11T04:21:16;18.40;;;6.50;;
828;SDS011;396;52.558;13.188;2022-12-11T04:24:00;19.50;;;7.20;;
828;SDS011;396;52.558;13.188;2022-12-11T04:26:42;13.43;;;5.60;;
828;SDS011;396;52.558;13.188;2022-12-11T04:29:10;14.47;;;6.27;;
828;SDS011;396;52.558;13.188;2022-12-11T04:31:37;16.00;;;6.77;;
828;SDS011;396;52.558;13.188;2022-12-11T04:34:03;17.20;;;7.53;;
828;SDS011;396;52.558;13.188;2022-12-11T04:36:31;19.17;;;7.23;;
828;SDS011;396;52.558;13.188;2022-12-11T04:38:58;14.50;;;6.80;;
828;SDS011;396;52.558;13.188;2022-12-11T04:41:24;21.17;;;7.30;;
828;SDS011;396;52.558;13.188;2022-12-11T04:43:51;15.40;;;6.87;;
828;SDS011;396;52.558;13.188;2022-12-11T04:46:18;15.60;;;6.67;;
828;SDS011;396;52.558;13.188;2022-12-11T04:48:47;22.17;;;8.67;;
828;SDS011;396;52.558;13.188;2022-12-11T04:51:14;18.40;;;8.63;;
828;SDS011;396;52.558;13.188;2022-12-11T04:53:42;15.93;;;6.53;;
828;SDS011;396;52.558;13.188;2022-12-11T04:56:10;18.13;;;7.30;;
828;SDS011;396;52.558;13.188;2022-12-11T04:58:38;15.00;;;6.67;;
828;SDS011;396;52.558;13.188;2022-12-11T05:01:07;15.80;;;7.07;;
828;SDS011;396;52.558;13.188;2022-12-11T05:03:34;16.87;;;6.90;;
828;SDS011;396;52.558;13.188;2022-12-11T05:06:01;13.20;;;6.70;;
828;SDS011;396;52.558;13.188;2022-12-11T05:08:27;14.50;;;7.40;;
828;SDS011;396;52.558;13.188;2022-12-11T05:10:56;18.73;;;7.43;;
828;SDS011;396;52.558;13.188;2022-12-11T05:13:23;21.50;;;6.13;;
828;SDS011;396;52.558;13.188;2022-12-11T05:15:50;24.03;;;7.20;;
828;SDS011;396;52.558;13.188;2022-12-11T05:18:17;14.80;;;6.70;;
828;SDS011;396;52.558;13.188;2022-12-11T05:20:43;11.23;;;6.40;;
828;SDS011;396;52.558;13.188;2022-12-11T05:23:10;16.83;;;7.07;;
828;SDS011;396;52.558;13.188;2022-12-11T05:25:37;15.33;;;6.83;;
828;SDS011;396;52.558;13.188;2022-12-11T05:28:05;21.60;;;6.90;;
828;SDS011;396;52.558;13.188;2022-12-11T05:30:31;17.47;;;7.73;;
828;SDS011;396;52.558;13.188;2022-12-11T05:32:58;12.70;;;6.13;;
828;SDS011;396;52.558;13.188;2022-12-11T05:35:24;16.10;;;6.43;;
828;SDS011;396;52.558;13.188;2022-12-11T05:37:51;16.93;;;7.50;;
828;SDS011;396;52.558;13.188;2022-12-11T05:40:18;31.63;;;7.33;;
828;SDS011;396;52.558;13.188;2022-12-11T05:42:44;16.40;;;7.60;;
828;SDS011;396;52.558;13.188;2022-12-11T05:45:12;18.40;;;6.70;;
828;SDS011;396;52.558;13.188;2022-12-11T05:47:39;22.20;;;7.60;;
828;SDS011;396;52.558;13.188;2022-12-11T05:50:06;15.10;;;6.40;;
828;SDS011;396;52.558;13.188;2022-12-11T05:52:33;20.40;;;8.30;;
828;SDS011;396;52.558;13.188;2022-12-11T05:55:00;17.17;;;6.60;;
828;SDS011;396;52.558;13.188;2022-12-11T05:57:26;15.27;;;6.20;;
828;SDS011;396;52.558;13.188;2022-12-11T05:59:53;16.80;;;7.30;;
828;SDS011;396;52.558;13.188;2022-12-11T06:02:21;18.37;;;7.20;;
828;SDS011;396;52.558;13.188;2022-12-11T06:04:47;17.97;;;6.77;;
828;SDS011;396;52.558;13.188;2022-12-11T06:07:14;17.80;;;7.77;;
828;SDS011;396;52.558;13.188;2022-12-11T06:09:41;17.10;;;7.80;;
828;SDS011;396;52.558;13.188;2022-12-11T06:12:07;15.40;;;6.03;;
828;SDS011;396;52.558;13.188;2022-12-11T06:14:34;15.10;;;6.40;;
828;SDS011;396;52.558;13.188;2022-12-11T06:17:00;18.40;;;6.20;;
828;SDS011;396;52.558;13.188;2022-12-11T06:19:28;16.03;;;6.03;;
828;SDS011;396;52.558;13.188;2022-12-11T06:21:55;17.13;;;6.93;;
828;SDS011;396;52.558;13.188;2022-12-11T06:24:21;24.73;;;6.90;;
828;SDS011;396;52.558;13.188;2022-12-11T06:26:48;22.40;;;6.90;;
828;SDS011;396;52.558;13.188;2022-12-11T06:29:15;14.13;;;5.70;;
828;SDS011;396;52.558;13.188;2022-12-11T06:31:42;22.80;;;6.70;;
828;SDS011;396;52.558;13.188;2022-12-11T06:34:08;16.97;;;6.87;;
828;SDS011;396;52.558;13.188;2022-12-11T06:36:38;15.30;;;6.00;;
828;SDS011;396;52.558;13.188;2022-12-11T06:39:05;21.70;;;7.37;;
828;SDS011;396;52.558;13.188;2022-12-11T06:41:32;18.00;;;7.00;;
828;SDS011;396;52.558;13.188;2022-12-11T06:43:59;17.00;;;8.10;;
828;SDS011;396;52.558;13.188;2022-12-11T06:46:26;25.87;;;8.30;;
828;SDS011;396;52.558;13.188;2022-12-11T06:48:52;17.07;;;7.53;;
828;SDS011;396;52.558;13.188;2022-12-11T06:51:20;13.73;;;5.67;;
828;SDS011;396;52.558;13.188;2022-12-11T06:53:50;15.33;;;6.53;;
828;SDS011;396;52.558;13.188;2022-12-11T06:56:18;15.17;;;6.07;;
828;SDS011;396;52.558;13.188;2022-12-11T06:58:45;16.30;;;5.60;;
828;SDS011;396;52.558;13.188;2022-12-11T07:01:13;17.97;;;7.50;;
828;SDS011;396;52.558;13.188;2022-12-11T07:03:41;14.50;;;6.60;;
828;SDS011;396;52.558;13.188;2022-12-11T07:06:08;16.27;;;6.63;;
828;SDS011;396;52.558;13.188;2022-12-11T07:08:35;14.37;;;5.80;;
828;SDS011;396;52.558;13.188;2022-12-11T07:11:04;13.17;;;5.87;;
828;SDS011;396;52.558;13.188;2022-12-11T07:13:32;17.10;;;7.40;;
828;SDS011;396;52.558;13.188;2022-12-11T07:15:59;18.17;;;7.20;;
828;SDS011;396;52.558;13.188;2022-12-11T07:18:28;17.40;;;6.77;;
828;SDS011;396;52.558;13.188;2022-12-11T07:20:56;17.10;;;6.50;;
828;SDS011;396;52.558;13.188;2022-12-11T07:23:23;16.27;;;6.77;;
828;SDS011;396;52.558;13.188;2022-12-11T07:25:50;15.03;;;6.07;;
828;SDS011;396;52.558;13.188;2022-12-11T07:28:19;13.67;;;7.07;;
828;SDS011;396;52.558;13.188;2022-12-11T07:30:45;14.97;;;5.53;;
828;SDS011;396;52.558;13.188;2022-12-11T07:33:12;16.50;;;6.10;;
828;SDS011;396;52.558;13.188;2022-12-11T07:35:39;17.07;;;5.93;;
828;SDS011;396;52.558;13.188;2022-12-11T07:38:06;14.70;;;5.27;;
828;SDS011;396;52.558;13.188;2022-12-11T07:40:33;14.90;;;5.20;;
828;SDS011;396;52.558;13.188;2022-12-11T07:42:59;13.00;;;5.30;;
828;SDS011;396;52.558;13.188;2022-12-11T07:45:27;13.30;;;5.73;;
828;SDS011;396;52.558;13.188;2022-12-11T07:47:54;15.03;;;6.10;;
828;SDS011;396;52.558;13.188;2022-12-11T07:50:21;10.93;;;4.63;;
828;SDS011;396;52.558;13.188;2022-12-11T07:52:48;24.33;;;6.73;;
828;SDS011;396;52.558;13.188;2022-12-11T07:55:14;12.03;;;5.33;;
828;SDS011;396;52.558;13.188;2022-12-11T07:57:41;13.17;;;5.03;;
828;SDS011;396;52.558;13.188;2022-12-11T08:00:08;13.63;;;5.53;;
828;SDS011;396;52.558;13.188;2022-12-11T08:02:37;14.63;;;5.43;;
828;SDS011;396;52.558;13.188;2022-12-11T08:05:04;14.47;;;5.73;;
828;SDS011;396;52.558;13.188;2022-12-11T08:07:32;11.50;;;4.60;;
828;SDS011;396;52.558;13.188;2022-12-11T08:09:59;12.27;;;5.03;;
828;SDS011;396;52.558;13.188;2022-12-11T08:12:26;13.10;;;5.00;;
828;SDS011;396;52.558;13.188;2022-12-11T08:14:52;16.37;;;5.50;;
828;SDS011;396;52.558;13.188;2022-12-11T08:17:19;17.10;;;6.40;;
828;SDS011;396;52.558;13.188;2022-12-11T08:19:47;16.10;;;5.50;;
828;SDS011;396;52.558;13.188;2022-12-11T08:22:13;16.50;;;5.40;;
828;SDS011;396;52.558;13.188;2022-12-11T08:24:40;17.27;;;5.80;;
828;SDS011;396;52.558;13.188;2022-12-11T08:27:07;24.83;;;6.53;;
828;SDS011;396;52.558;13.188;2022-12-11T08:29:33;12.37;;;4.53;;
828;SDS011;396;52.558;13.188;2022-12-11T08:32:00;12.50;;;6.00;;
828;SDS011;396;52.558;13.188;2022-12-11T08:34:27;14.70;;;5.20;;
828;SDS011;396;52.558;13.188;2022-12-11T08:36:55;11.13;;;3.93;;
828;SDS011;396;52.558;13.188;2022-12-11T08:39:22;20.33;;;5.30;;
828;SDS011;396;52.558;13.188;2022-12-11T08:41:49;28.00;;;7.70;;
828;SDS011;396;52.558;13.188;2022-12-11T08:44:15;11.70;;;5.30;;
828;SDS011;396;52.558;13.188;2022-12-11T08:46:42;16.83;;;6.23;;
828;SDS011;396;52.558;13.188;2022-12-11T08:49:09;11.90;;;4.50;;
828;SDS011;396;52.558;13.188;2022-12-11T08:51:36;10.93;;;5.10;;
828;SDS011;396;52.558;13.188;2022-12-11T08:54:04;12.70;;;4.93;;
828;SDS011;396;52.558;13.188;2022-12-11T08:56:30;13.60;;;5.80;;
828;SDS011;396;52.558;13.188;2022-12-11T08:58:58;13.83;;;6.27;;
828;SDS011;396;52.558;13.188;2022-12-11T09:01:26;12.87;;;6.17;;
828;SDS011;396;52.558;13.188;2022-12-11T09:03:53;11.57;;;5.83;;
828;SDS011;396;52.558;13.188;2022-12-11T09:06:22;16.80;;;6.13;;
828;SDS011;396;52.558;13.188;2022-12-11T09:08:50;23.37;;;6.50;;
828;SDS011;396;52.558;13.188;2022-12-11T09:11:20;11.97;;;4.90;;
828;SDS011;396;52.558;13.188;2022-12-11T09:13:48;13.73;;;5.30;;
828;SDS011;396;52.558;13.188;2022-12-11T09:16:16;13.87;;;6.27;;
828;SDS011;396;52.558;13.188;2022-12-11T09:18:44;15.83;;;6.00;;
828;SDS011;396;52.558;13.188;2022-12-11T09:21:12;16.90;;;5.57;;
828;SDS011;396;52.558;13.188;2022-12-11T09:23:41;15.53;;;5.83;;
828;SDS011;396;52.558;13.188;2022-12-11T09:26:09;21.23;;;5.80;;
828;SDS011;396;52.558;13.188;2022-12-11T09:28:40;15.40;;;5.90;;
828;SDS011;396;52.558;13.188;2022-12-11T09:31:08;9.40;;;4.20;;
828;SDS011;396;52.558;13.188;2022-12-11T09:33:35;13.30;;;4.50;;
828;SDS011;396;52.558;13.188;2022-12-11T09:36:02;13.70;;;5.60;;
828;SDS011;396;52.558;13.188;2022-12-11T09:38:30;11.73;;;5.03;;
828;SDS011;396;52.558;13.188;2022-12-11T09:40:57;13.40;;;5.57;;
828;SDS011;396;52.558;13.188;2022-12-11T09:43:29;15.20;;;5.80;;
828;SDS011;396;52.558;13.188;2022-12-11T09:46:03;15.90;;;5.30;;
828;SDS011;396;52.558;13.188;2022-12-11T09:48:34;12.53;;;5.00;;
828;SDS011;396;52.558;13.188;2022-12-11T09:51:04;13.00;;;4.83;;
828;SDS011;396;52.558;13.188;2022-12-11T09:53:38;16.97;;;5.43;;
828;SDS011;396;52.558;13.188;2022-12-11T09:56:05;13.70;;;5.80;;
828;SDS011;396;52.558;13.188;2022-12-11T09:58:44;13.10;;;5.37;;
828;SDS011;396;52.558;13.188;2022-12-11T10:01:25;12.87;;;5.17;;
828;SDS011;396;52.558;13.188;2022-12-11T10:04:06;13.83;;;5.50;;
828;SDS011;396;52.558;13.188;2022-12-11T10:06:45;13.70;;;5.33;;
828;SDS011;396;52.558;13.188;2022-12-11T10:09:17;10.20;;;4.00;;
828;SDS011;396;52.558;13.188;2022-12-11T10:11:53;11.83;;;4.97;;
828;SDS011;396;52.558;13.188;2022-12-11T10:14:31;11.57;;;4.77;;
828;SDS011;396;52.558;13.188;2022-12-11T10:17:11;11.90;;;4.03;;
828;SDS011;396;52.558;13.188;2022-12-11T10:19:44;15.60;;;5.53;;
828;SDS011;396;52.558;13.188;2022-12-11T10:22:13;12.17;;;4.80;;
828;SDS011;396;52.558;13.188;2022-12-11T10:24:46;13.87;;;5.70;;
828;SDS011;396;52.558;13.188;2022-12-11T10:27:20;15.40;;;5.20;;
828;SDS011;396;52.558;13.188;2022-12-11T10:29:51;11.17;;;5.23;;
828;SDS011;396;52.558;13.188;2022-12-11T10:32:27;9.47;;;3.77;;
828;SDS011;396;52.558;13.188;2022-12-11T10:35:01;13.50;;;4.90;;
828;SDS011;396;52.558;13.188;2022-12-11T10:37:31;15.77;;;5.43;;
828;SDS011;396;52.558;13.188;2022-12-11T10:39:58;11.33;;;4.33;;
828;SDS011;396;52.558;13.188;2022-12-11T10:42:24;14.13;;;4.50;;
828;SDS011;396;52.558;13.188;2022-12-11T10:44:54;15.63;;;6.10;;
828;SDS011;396;52.558;13.188;2022-12-11T10:47:22;11.87;;;5.23;;
828;SDS011;396;52.558;13.188;2022-12-11T10:49:52;13.57;;;5.60;;
828;SDS011;396;52.558;13.188;2022-12-11T10:52:21;12.53;;;5.37;;
828;SDS011;396;52.558;13.188;2022-12-11T10:54:53;10.40;;;4.47;;
828;SDS011;396;52.558;13.188;2022-12-11T10:57:25;13.60;;;5.93;;
828;SDS011;396;52.558;13.188;2022-12-11T10:59:54;16.17;;;5.27;;
828;SDS011;396;52.558;13.188;2022-12-11T11:02:23;16.80;;;6.23;;
828;SDS011;396;52.558;13.188;2022-12-11T11:04:53;12.87;;;5.40;;
828;SDS011;396;52.558;13.188;2022-12-11T11:07:23;14.53;;;5.10;;
828;SDS011;396;52.558;13.188;2022-12-11T11:10:02;13.50;;;4.80;;
828;SDS011;396;52.558;13.188;2022-12-11T11:12:35;13.50;;;5.50;;
828;SDS011;396;52.558;13.188;2022-12-11T11:15:04;13.03;;;5.57;;
828;SDS011;396;52.558;13.188;2022-12-11T11:17:32;16.90;;;5.60;;
828;SDS011;396;52.558;13.188;2022-12-11T11:20:12;13.30;;;5.07;;
828;SDS011;396;52.558;13.188;2022-12-11T11:22:43;13.50;;;5.30;;
828;SDS011;396;52.558;13.188;2022-12-11T11:25:15;10.57;;;4.07;;
828;SDS011;396;52.558;13.188;2022-12-11T11:30:52;15.60;;;5.60;;
828;SDS011;396;52.558;13.188;2022-12-11T11:33:23;10.90;;;4.30;;
828;SDS011;396;52.558;13.188;2022-12-11T11:35:53;15.87;;;6.37;;
828;SDS011;396;52.558;13.188;2022-12-11T11:38:21;12.33;;;4.60;;
828;SDS011;396;52.558;13.188;2022-12-11T11:40:52;15.80;;;6.30;;
828;SDS011;396;52.558;13.188;2022-12-11T11:43:26;15.80;;;6.00;;
828;SDS011;396;52.558;13.188;2022-12-11T11:46:00;17.57;;;6.30;;
828;SDS011;396;52.558;13.188;2022-12-11T11:48:33;10.50;;;3.70;;
828;SDS011;396;52.558;13.188;2022-12-11T11:51:11;14.90;;;6.20;;
828;SDS011;396;52.558;13.188;2022-12-11T11:53:40;13.23;;;5.33;;
828;SDS011;396;52.558;13.188;2022-12-11T11:56:17;15.03;;;5.13;;
828;SDS011;396;52.558;13.188;2022-12-11T11:58:48;14.10;;;5.83;;
828;SDS011;396;52.558;13.188;2022-12-11T12:01:20;11.90;;;4.67;;
828;SDS011;396;52.558;13.188;2022-12-11T12:03:47;13.57;;;4.80;;
828;SDS011;396;52.558;13.188;2022-12-11T12:06:18;14.17;;;5.50;;
828;SDS011;396;52.558;13.188;2022-12-11T12:08:57;13.63;;;5.47;;
828;SDS011;396;52.558;13.188;2022-12-11T12:11:38;13.60;;;4.50;;
828;SDS011;396;52.558;13.188;2022-12-11T12:14:12;13.47;;;5.27;;
828;SDS011;396;52.558;13.188;2022-12-11T12:16:48;11.17;;;4.50;;
828;SDS011;396;52.558;13.188;2022-12-11T12:19:32;14.60;;;5.83;;
828;SDS011;396;52.558;13.188;2022-12-11T12:22:20;15.47;;;5.33;;
828;SDS011;396;52.558;13.188;2022-12-11T12:24:59;16.90;;;4.97;;
828;SDS011;396;52.558;13.188;2022-12-11T12:27:34;13.33;;;5.60;;
828;SDS011;396;52.558;13.188;2022-12-11T12:30:07;16.90;;;6.17;;
828;SDS011;396;52.558;13.188;2022-12-11T12:32:39;12.87;;;5.07;;
828;SDS011;396;52.558;13.188;2022-12-11T12:35:20;11.00;;;4.70;;
828;SDS011;396;52.558;13.188;2022-12-11T12:38:00;12.90;;;5.20;;
828;SDS011;396;52.558;13.188;2022-12-11T12:40:33;13.27;;;5.67;;
828;SDS011;396;52.558;13.188;2022-12-11T12:43:08;11.80;;;4.77;;
828;SDS011;396;52.558;13.188;2022-12-11T12:45:58;15.47;;;5.70;;
828;SDS011;396;52.558;13.188;2022-12-11T12:48:33;12.67;;;4.70;;
828;SDS011;396;52.558;13.188;2022-12-11T12:50:59;20.20;;;5.90;;
828;SDS011;396;52.558;13.188;2022-12-11T12:53:30;12.37;;;5.50;;
828;SDS011;396;52.558;13.188;2022-12-11T12:56:00;14.37;;;5.60;;
828;SDS011;396;52.558;13.188;2022-12-11T12:58:29;16.10;;;6.93;;
828;SDS011;396;52.558;13.188;2022-12-11T13:01:08;14.40;;;6.27;;
828;SDS011;396;52.558;13.188;2022-12-11T13:03:36;16.23;;;5.70;;
828;SDS011;396;52.558;13.188;2022-12-11T13:06:16;11.87;;;4.50;;
828;SDS011;396;52.558;13.188;2022-12-11T13:08:56;12.17;;;5.33;;
828;SDS011;396;52.558;13.188;2022-12-11T13:11:29;13.27;;;5.23;;
828;SDS011;396;52.558;13.188;2022-12-11T13:14:00;13.70;;;5.50;;
828;SDS011;396;52.558;13.188;2022-12-11T13:16:33;16.40;;;6.17;;
828;SDS011;396;52.558;13.188;2022-12-11T13:19:03;17.23;;;5.00;;
828;SDS011;396;52.558;13.188;2022-12-11T13:21:42;16.50;;;6.50;;
828;SDS011;396;52.558;13.188;2022-12-11T13:24:24;14.00;;;5.00;;
828;SDS011;396;52.558;13.188;2022-12-11T13:26:53;15.53;;;5.87;;
828;SDS011;396;52.558;13.188;2022-12-11T13:29:32;15.77;;;6.03;;
828;SDS011;396;52.558;13.188;2022-12-11T13:32:03;16.03;;;6.00;;
828;SDS011;396;52.558;13.188;2022-12-11T13:34:49;14.93;;;4.80;;
828;SDS011;396;52.558;13.188;2022-12-11T13:37:20;16.97;;;5.43;;
828;SDS011;396;52.558;13.188;2022-12-11T13:39:52;11.77;;;5.20;;
828;SDS011;396;52.558;13.188;2022-12-11T13:42:20;15.17;;;5.27;;
828;SDS011;396;52.558;13.188;2022-12-11T13:44:52;13.83;;;4.90;;
828;SDS011;396;52.558;13.188;2022-12-11T13:47:19;11.33;;;4.70;;
828;SDS011;396;52.558;13.188;2022-12-11T13:49:47;12.77;;;5.13;;
828;SDS011;396;52.558;13.188;2022-12-11T13:52:17;12.63;;;5.43;;
828;SDS011;396;52.558;13.188;2022-12-11T13:54:46;13.43;;;5.03;;
828;SDS011;396;52.558;13.188;2022-12-11T13:57:16;11.87;;;4.60;;
828;SDS011;396;52.558;13.188;2022-12-11T13:59:46;17.07;;;5.80;;
828;SDS011;396;52.558;13.188;2022-12-11T14:02:17;15.50;;;5.97;;
828;SDS011;396;52.558;13.188;2022-12-11T14:04:46;13.30;;;5.20;;
828;SDS011;396;52.558;13.188;2022-12-11T14:07:19;18.23;;;5.70;;
828;SDS011;396;52.558;13.188;2022-12-11T14:09:50;14.87;;;5.80;;
828;SDS011;396;52.558;13.188;2022-12-11T14:12:19;10.93;;;5.47;;
828;SDS011;396;52.558;13.188;2022-12-11T14:14:48;12.47;;;5.80;;
828;SDS011;396;52.558;13.188;2022-12-11T14:17:18;17.60;;;6.77;;
828;SDS011;396;52.558;13.188;2022-12-11T14:19:49;25.00;;;5.83;;
828;SDS011;396;52.558;13.188;2022-12-11T14:22:18;29.10;;;7.17;;
828;SDS011;396;52.558;13.188;2022-12-11T14:24:49;15.87;;;6.40;;
828;SDS011;396;52.558;13.188;2022-12-11T14:27:17;15.40;;;6.17;;
828;SDS011;396;52.558;13.188;2022-12-11T14:29:46;16.53;;;5.03;;
828;SDS011;396;52.558;13.188;2022-12-11T14:32:16;15.20;;;5.83;;
828;SDS011;396;52.558;13.188;2022-12-11T14:34:45;13.67;;;4.90;;
828;SDS011;396;52.558;13.188;2022-12-11T14:37:14;15.10;;;5.97;;
828;SDS011;396;52.558;13.188;2022-12-11T14:39:43;15.33;;;5.00;;
828;SDS011;396;52.558;13.188;2022-12-11T14:42:13;16.63;;;6.17;;
828;SDS011;396;52.558;13.188;2022-12-11T14:44:46;12.57;;;6.13;;
828;SDS011;396;52.558;13.188;2022-12-11T14:47:15;21.80;;;6.17;;
828;SDS011;396;52.558;13.188;2022-12-11T14:49:47;14.20;;;5.43;;
828;SDS011;396;52.558;13.188;2022-12-11T14:52:20;18.00;;;6.13;;
828;SDS011;396;52.558;13.188;2022-12-11T14:54:51;18.43;;;6.10;;
828;SDS011;396;52.558;13.188;2022-12-11T14:57:21;15.07;;;6.23;;
828;SDS011;396;52.558;13.188;2022-12-11T14:59:53;14.83;;;6.07;;
828;SDS011;396;52.558;13.188;2022-12-11T15:02:26;13.53;;;7.37;;
828;SDS011;396;52.558;13.188;2022-12-11T15:04:58;20.03;;;6.73;;
828;SDS011;396;52.558;13.188;2022-12-11T15:07:36;15.23;;;5.60;;
828;SDS011;396;52.558;13.188;2022-12-11T15:10:04;20.27;;;6.93;;
828;SDS011;396;52.558;13.188;2022-12-11T15:12:31;18.10;;;6.37;;
828;SDS011;396;52.558;13.188;2022-12-11T15:14:59;13.47;;;6.63;;
828;SDS011;396;52.558;13.188;2022-12-11T15:17:31;13.40;;;5.20;;
828;SDS011;396;52.558;13.188;2022-12-11T15:20:02;19.70;;;5.57;;
828;SDS011;396;52.558;13.188;2022-12-11T15:22:33;21.53;;;5.77;;
828;SDS011;396;52.558;13.188;2022-12-11T15:25:01;14.23;;;6.10;;
828;SDS011;396;52.558;13.188;2022-12-11T15:27:29;15.00;;;6.33;;
828;SDS011;396;52.558;13.188;2022-12-11T15:30:00;14.90;;;6.13;;
828;SDS011;396;52.558;13.188;2022-12-11T15:32:29;13.17;;;6.03;;
828;SDS011;396;52.558;13.188;2022-12-11T15:34:56;15.70;;;6.70;;
828;SDS011;396;52.558;13.188;2022-12-11T15:37:25;14.63;;;6.23;;